Date,TemperatureHighF,TemperatureAvgF,TemperatureLowF,DewpointHighF,DewpointAvgF,DewpointLowF,HumidityHigh,HumidityAvg,HumidityLow,PressureMaxIn,PressureMinIn,WindSpeedMaxMPH,WindSpeedAvgMPH,GustSpeedMaxMPH,PrecipitationSumIn
2013-1-1,44,40,37,-100,-100,-100,0,0,100,0.00,40.00,0,-999,0,0.00
2013-1-2,39,34,29,-100,-100,-100,0,0,100,0.00,40.00,0,-999,0,0.00
2013-1-3,51,34,22,-100,-100,-100,0,0,100,0.00,40.00,0,-999,0,0.00
2013-1-4,46,34,25,-100,-100,-100,0,0,100,0.00,40.00,0,-999,0,0.00
2013-1-5,51,38,30,-100,-100,-100,0,0,100,0.00,40.00,0,-999,0,0.00
2013-1-6,59,41,29,-100,-100,-100,0,0,100,0.00,40.00,0,-999,0,0.00
2013-1-7,55,38,25,-100,-100,-100,0,0,100,0.00,40.00,0,-999,0,0.00
2013-1-8,58,43,32,-100,-100,-100,0,0,100,0.00,40.00,0,-999,0,0.00
2013-1-9,60,53,48,-100,-100,-100,0,0,100,0.00,40.00,0,-999,0,0.00
2013-1-10,65,57,51,-100,-100,-100,0,0,100,0.00,40.00,0,-999,0,0.00
2013-1-11,71,54,41,-100,-100,-100,0,0,100,0.00,40.00,0,-999,0,0.00
2013-1-12,60,52,40,-100,-100,-100,0,0,100,0.00,40.00,0,-999,0,0.00
2013-1-13,41,36,25,-100,-100,-100,0,0,100,0.00,40.00,0,-999,0,0.00
2013-1-14,43,28,20,-100,-100,-100,0,0,100,0.00,40.00,0,-999,0,0.00
2013-1-15,32,28,22,-100,-100,-100,0,0,100,0.00,40.00,0,-999,0,0.00
2013-1-16,48,34,22,-100,-100,-100,0,0,100,0.00,40.00,0,-999,0,0.00
2013-1-17,58,39,27,-100,-100,-100,0,0,100,0.00,40.00,0,-999,0,0.00
2013-1-18,60,42,27,-100,-100,-100,0,0,100,0.00,40.00,0,-999,0,0.00
2013-1-19,69,47,29,-100,-100,-100,0,0,100,0.00,40.00,0,-999,0,0.00
2013-1-20,67,48,34,-100,-100,-100,0,0,100,0.00,40.00,0,-999,0,0.00
2013-1-21,54,44,33,-100,-100,-100,0,0,100,0.00,40.00,0,-999,0,0.00
2013-1-22,47,35,26,-100,-100,-100,0,0,100,0.00,40.00,0,-999,0,0.00
2013-1-23,63,45,31,-100,-100,-100,0,0,100,0.00,40.00,0,-999,0,0.00
2013-1-24,49,43,32,-100,-100,-100,0,0,100,0.00,40.00,0,-999,0,0.00
2013-1-25,47,39,31,-100,-100,-100,0,0,100,0.00,40.00,0,-999,0,0.00
2013-1-26,54,44,32,-100,-100,-100,0,0,100,0.00,40.00,0,-999,0,0.00
2013-1-27,61,52,47,-100,-100,-100,0,0,100,0.00,40.00,0,-999,0,0.00
2013-1-28,78,68,60,-100,-100,-100,0,0,100,0.00,40.00,0,-999,0,0.00
2013-1-29,73,69,58,-100,-100,-100,0,0,100,0.00,40.00,0,-999,0,0.00
2013-1-30,56,43,32,-100,-100,-100,0,0,100,0.00,40.00,0,-999,0,0.00
2013-1-31,62,42,25,-100,-100,-100,0,0,100,0.00,40.00,0,-999,0,0.00
2013-2-1,45,32,20,-100,-100,-100,0,0,100,0.00,40.00,0,-999,0,0.00
2013-2-2,63,40,27,-100,-100,-100,0,0,100,0.00,40.00,0,-999,0,0.00
2013-2-3,66,47,32,-100,-100,-100,0,0,100,0.00,40.00,0,-999,0,0.00
2013-2-4,58,47,42,-100,-100,-100,0,0,100,0.00,40.00,0,-999,0,0.00
2013-2-5,68,50,37,-100,-100,-100,0,0,100,0.00,40.00,0,-999,0,0.00
2013-2-6,65,52,40,-100,-100,-100,0,0,100,0.00,40.00,0,-999,0,0.00
2013-2-7,64,57,53,-100,-100,-100,0,0,100,0.00,40.00,0,-999,0,0.00
2013-2-8,62,50,39,-100,-100,-100,0,0,100,0.00,40.00,0,-999,0,0.00
2013-2-9,46,41,38,-100,-100,-100,0,0,100,0.00,40.00,0,-999,0,0.00
2013-2-10,69,54,43,-100,-100,-100,0,0,100,0.00,40.00,0,-999,0,0.00
2013-2-11,63,51,36,-100,-100,-100,0,0,100,0.00,40.00,0,-999,0,0.00
2013-2-12,47,42,38,-100,-100,-100,0,0,100,0.00,40.00,0,-999,0,0.00
2013-2-13,56,46,38,-100,-100,-100,0,0,100,0.00,40.00,0,-999,0,0.00
2013-2-14,68,47,32,-100,-100,-100,0,0,100,0.00,40.00,0,-999,0,0.00
2013-2-15,53,45,32,-100,-100,-100,0,0,100,0.00,40.00,0,-999,0,0.00
2013-2-16,47,35,27,-100,-100,-100,0,0,100,0.00,40.00,0,-999,0,0.00
2013-2-17,69,49,32,-100,-100,-100,0,0,100,0.00,40.00,0,-999,0,0.00
2013-2-18,67,57,44,-100,-100,-100,0,0,100,0.00,40.00,0,-999,0,0.00
2013-2-19,56,43,32,-100,-100,-100,0,0,100,0.00,40.00,0,-999,0,0.00
2013-2-20,39,33,29,-100,-100,-100,0,0,100,0.00,40.00,0,-999,0,0.00
2013-2-21,35,31,28,-100,-100,-100,0,0,100,0.00,40.00,0,-999,0,0.00
2013-2-22,41,33,25,-100,-100,-100,0,0,100,0.00,40.00,0,-999,0,0.00
2013-2-23,52,38,24,-100,-100,-100,0,0,100,0.00,40.00,0,-999,0,0.00
2013-2-24,62,46,31,-100,-100,-100,0,0,100,0.00,40.00,0,-999,0,0.00
2013-2-25,53,46,42,-100,-100,-100,0,0,100,0.00,40.00,0,-999,0,0.00
2013-2-26,44,40,36,-100,-100,-100,0,0,100,0.00,40.00,0,-999,0,0.00
2013-2-27,49,41,36,-100,-100,-100,0,0,100,0.00,40.00,0,-999,0,0.00
2013-2-28,52,39,30,-100,-100,-100,0,0,100,0.00,40.00,0,-999,0,0.00
2013-3-1,43,36,30,-100,-100,-100,0,0,100,0.00,40.00,0,-999,0,0.00
2013-3-2,48,37,29,-100,-100,-100,0,0,100,0.00,40.00,0,-999,0,0.00
2013-3-3,62,41,28,-100,-100,-100,0,0,100,0.00,40.00,0,-999,0,0.00
2013-3-4,69,56,44,-100,-100,-100,0,0,100,0.00,40.00,0,-999,0,0.00
2013-3-5,54,47,40,-100,-100,-100,0,0,100,0.00,40.00,0,-999,0,0.00
2013-3-6,58,42,29,-100,-100,-100,0,0,100,0.00,40.00,0,-999,0,0.00
2013-3-7,68,51,41,-100,-100,-100,0,0,100,0.00,40.00,0,-999,0,0.00
2013-3-8,68,55,44,-100,-100,-100,0,0,100,0.00,40.00,0,-999,0,0.00
2013-3-9,72,63,54,-100,-100,-100,0,0,100,0.00,40.00,0,-999,0,0.00
2013-3-10,62,53,36,-100,-100,-100,0,0,100,0.00,40.00,0,-999,0,0.00
2013-3-11,54,40,32,-100,-100,-100,0,0,100,0.00,40.00,0,-999,0,0.00
2013-3-12,66,48,32,-100,-100,-100,0,0,100,0.00,40.00,0,-999,0,0.00
2013-3-13,65,49,34,-100,-100,-100,0,0,100,0.00,40.00,0,-999,0,0.00
2013-3-14,76,54,37,-100,-100,-100,0,0,100,0.00,40.00,0,-999,0,0.00
2013-3-15,87,80,65,-100,-100,-100,0,0,100,0.00,40.00,0,-999,0,0.00
2013-3-16,85,69,52,-100,-100,-100,0,0,100,0.00,40.00,0,-999,0,0.00
2013-3-17,69,57,51,-100,-100,-100,0,0,100,0.00,40.00,0,-999,0,0.00
2013-3-18,65,56,51,-100,-100,-100,0,0,100,0.00,40.00,0,-999,0,0.00
2013-3-19,65,55,42,-100,-100,-100,0,0,100,0.00,40.00,0,-999,0,0.00
2013-3-20,61,48,37,-100,-100,-100,0,0,100,0.00,40.00,0,-999,0,0.00
2013-3-21,46,40,36,-100,-100,-100,0,0,100,0.00,40.00,0,-999,0,0.00
2013-3-22,47,41,35,-100,-100,-100,0,0,100,0.00,40.00,0,-999,0,0.00
2013-3-23,47,45,43,-100,-100,-100,0,0,100,0.00,40.00,0,-999,0,0.00
2013-3-24,47,39,32,-100,-100,-100,0,0,100,0.00,40.00,0,-999,0,0.00
2013-3-25,41,34,27,-100,-100,-100,0,0,100,0.00,40.00,0,-999,0,0.00
2013-3-26,54,39,25,-100,-100,-100,0,0,100,0.00,40.00,0,-999,0,0.00
2013-3-27,69,48,29,-100,-100,-100,0,0,100,0.00,40.00,0,-999,0,0.00
2013-3-28,79,62,48,-100,-100,-100,0,0,100,0.00,40.00,0,-999,0,0.00
2013-3-29,69,62,58,-100,-100,-100,0,0,100,0.00,40.00,0,-999,0,0.00
2013-3-30,73,63,58,-100,-100,-100,0,0,100,0.00,40.00,0,-999,0,0.00
2013-3-31,76,66,59,-100,-100,-100,0,0,100,0.00,40.00,0,-999,0,0.00
2013-4-1,80,63,48,-100,-100,-100,0,0,100,0.00,40.00,0,-999,0,0.00
2013-4-2,62,49,41,-100,-100,-100,0,0,100,0.00,40.00,0,-999,0,0.00
2013-4-3,56,47,41,-100,-100,-100,0,0,100,0.00,40.00,0,-999,0,0.00
2013-4-4,52,49,44,-100,-100,-100,0,0,100,0.00,40.00,0,-999,0,0.00
2013-4-5,74,57,40,-100,-100,-100,0,0,100,0.00,40.00,0,-999,0,0.00
2013-4-6,82,64,51,-100,-100,-100,0,0,100,0.00,40.00,0,-999,0,0.00
2013-4-7,80,68,60,-100,-100,-100,0,0,100,0.00,40.00,0,-999,0,0.00
2013-4-8,82,73,68,-100,-100,-100,0,0,100,0.00,40.00,0,-999,0,0.00
2013-4-9,90,78,72,-100,-100,-100,0,0,100,0.00,40.00,0,-999,0,0.00
2013-4-10,80,65,44,-100,-100,-100,0,0,100,0.00,40.00,0,-999,0,0.00
2013-4-11,62,49,40,-100,-100,-100,0,0,100,0.00,40.00,0,-999,0,0.00
2013-4-12,71,56,41,-100,-100,-100,0,0,100,0.00,40.00,0,-999,0,0.00
2013-4-13,76,64,49,-100,-100,-100,0,0,100,0.00,40.00,0,-999,0,0.00
2013-4-14,87,72,57,-100,-100,-100,0,0,100,0.00,40.00,0,-999,0,0.00
2013-4-15,87,76,66,-100,-100,-100,0,0,100,0.00,40.00,0,-999,0,0.00
2013-4-16,91,80,69,-100,-100,-100,0,0,100,0.00,40.00,0,-999,0,0.00
2013-4-17,90,82,76,-100,-100,-100,0,0,100,0.00,40.00,0,-999,0,0.00
2013-4-18,83,65,48,-100,-100,-100,0,0,100,0.00,40.00,0,-999,0,0.00
2013-4-19,65,50,40,-100,-100,-100,0,0,100,0.00,40.00,0,-999,0,0.00
2013-4-20,75,58,42,-100,-100,-100,0,0,100,0.00,40.00,0,-999,0,0.00
2013-4-21,77,64,54,-100,-100,-100,0,0,100,0.00,40.00,0,-999,0,0.00
2013-4-22,82,66,53,-100,-100,-100,0,0,100,0.00,40.00,0,-999,0,0.00
2013-4-23,75,65,48,-100,-100,-100,0,0,100,0.00,40.00,0,-999,0,0.00
2013-4-24,66,52,42,-100,-100,-100,0,0,100,0.00,40.00,0,-999,0,0.00
2013-4-25,76,58,40,-100,-100,-100,0,0,100,0.00,40.00,0,-999,0,0.00
2013-4-26,64,58,56,-100,-100,-100,0,0,100,0.00,40.00,0,-999,0,0.00
2013-4-27,64,59,56,-100,-100,-100,0,0,100,0.00,40.00,0,-999,0,0.00
2013-4-28,80,66,58,-100,-100,-100,0,0,100,0.00,40.00,0,-999,0,0.00
2013-4-29,89,74,59,-100,-100,-100,0,0,100,0.00,40.00,0,-999,0,0.00
2013-4-30,90,77,64,-100,-100,-100,0,0,100,0.00,40.00,0,-999,0,0.00
2013-5-1,86,75,65,-100,-100,-100,0,0,100,0.00,40.00,0,-999,0,0.00
2013-5-2,71,62,48,-100,-100,-100,0,0,100,0.00,40.00,0,-999,0,0.00
2013-5-3,54,46,40,-100,-100,-100,0,0,100,0.00,40.00,0,-999,0,0.00
2013-5-4,52,47,43,-100,-100,-100,0,0,100,0.00,40.00,0,-999,0,0.00
2013-5-5,71,56,40,-100,-100,-100,0,0,100,0.00,40.00,0,-999,0,0.00
2013-5-6,79,66,54,-100,-100,-100,0,0,100,0.00,40.00,0,-999,0,0.00
2013-5-7,83,70,57,-100,-100,-100,0,0,100,0.00,40.00,0,-999,0,0.00
2013-5-8,87,74,61,-100,-100,-100,0,0,100,0.00,40.00,0,-999,0,0.00
2013-5-9,86,76,69,-100,-100,-100,0,0,100,0.00,40.00,0,-999,0,0.00
2013-5-10,83,75,68,-100,-100,-100,0,0,100,0.00,40.00,0,-999,0,0.00
2013-5-11,84,72,62,-100,-100,-100,0,0,100,0.00,40.00,0,-999,0,0.00
2013-5-12,78,64,51,-100,-100,-100,0,0,100,0.00,40.00,0,-999,0,0.00
2013-5-13,88,74,57,-100,-100,-100,0,0,100,0.00,40.00,0,-999,0,0.00
2013-5-14,92,77,63,-100,-100,-100,0,0,100,0.00,40.00,0,-999,0,0.00
2013-5-15,84,75,66,-100,-100,-100,0,0,100,0.00,40.00,0,-999,0,0.00
2013-5-16,76,73,70,-100,-100,-100,0,0,100,0.00,40.00,0,-999,0,0.00
2013-5-17,89,79,69,-100,-100,-100,0,0,100,0.00,40.00,0,-999,0,0.00
2013-5-18,93,84,76,-100,-100,-100,0,0,100,0.00,40.00,0,-999,0,0.00
2013-5-19,96,86,77,-100,-100,-100,0,0,100,0.00,40.00,0,-999,0,0.00
2013-5-20,88,83,74,-100,-100,-100,0,0,100,0.00,40.00,0,-999,0,0.00
2013-5-21,75,69,67,-100,-100,-100,0,0,100,0.00,40.00,0,-999,0,0.00
2013-5-22,84,73,65,-100,-100,-100,0,0,100,0.00,40.00,0,-999,0,0.00
2013-5-23,83,76,66,-100,-100,-100,0,0,100,0.00,40.00,0,-999,0,0.00
2013-5-24,83,76,67,-100,-100,-100,0,0,100,0.00,40.00,0,-999,0,0.00
2013-5-25,87,76,68,-100,-100,-100,0,0,100,0.00,40.00,0,-999,0,0.00
2013-5-26,90,80,72,-100,-100,-100,0,0,100,0.00,40.00,0,-999,0,0.00
2013-5-27,91,83,76,-100,-100,-100,0,0,100,0.00,40.00,0,-999,0,0.00
2013-5-28,92,85,80,-100,-100,-100,0,0,100,0.00,40.00,0,-999,0,0.00
2013-5-29,91,84,78,-100,-100,-100,0,0,100,0.00,40.00,0,-999,0,0.00
2013-5-30,84,78,74,-100,-100,-100,0,0,100,0.00,40.00,0,-999,0,0.00
2013-5-31,91,83,76,-100,-100,-100,0,0,100,0.00,40.00,0,-999,0,0.00
2013-6-1,85,76,70,-100,-100,-100,0,0,100,0.00,40.00,0,-999,0,0.00
2013-6-2,82,73,65,-100,-100,-100,0,0,100,0.00,40.00,0,-999,0,0.00
2013-6-3,85,74,63,-100,-100,-100,0,0,100,0.00,40.00,0,-999,0,0.00
2013-6-4,87,77,70,-100,-100,-100,0,0,100,0.00,40.00,0,-999,0,0.00
2013-6-5,87,78,73,-100,-100,-100,0,0,100,0.00,40.00,0,-999,0,0.00
2013-6-6,84,80,72,-100,-100,-100,0,0,100,0.00,40.00,0,-999,0,0.00
2013-6-7,87,78,68,-100,-100,-100,0,0,100,0.00,40.00,0,-999,0,0.00
2013-6-12,97,91,80,-100,-100,-100,0,0,100,0.00,40.00,0,-999,0,0.00
2013-6-13,99,92,81,-100,-100,-100,0,0,100,0.00,40.00,0,-999,0,0.00
2013-6-14,95,89,81,-100,-100,-100,0,0,100,0.00,40.00,0,-999,0,0.00
2013-6-15,95,88,80,-100,-100,-100,0,0,100,0.00,40.00,0,-999,0,0.00
2013-6-16,91,84,79,-100,-100,-100,0,0,100,0.00,40.00,0,-999,0,0.00
2013-6-17,87,81,76,-100,-100,-100,0,0,100,0.00,40.00,0,-999,0,0.00
2013-6-18,91,86,75,-100,-100,-100,0,0,100,0.00,40.00,0,-999,0,0.00
2013-6-19,93,85,74,-100,-100,-100,0,0,100,0.00,40.00,0,-999,0,0.00
2013-6-20,94,83,77,-100,-100,-100,0,0,100,0.00,40.00,0,-999,0,0.00
2013-7-23,98,87,80,-100,-100,-100,0,0,100,0.00,40.00,0,-999,0,0.00
2013-7-24,91,85,77,-100,-100,-100,0,0,100,0.00,40.00,0,-999,0,0.00
2013-7-25,91,87,80,-100,-100,-100,0,0,100,0.00,40.00,0,-999,0,0.00
2013-7-26,81,78,76,-100,-100,-100,0,0,100,0.00,40.00,0,-999,0,0.00
2013-7-27,91,81,73,-100,-100,-100,0,0,100,0.00,40.00,0,-999,0,0.00
2013-7-28,91,86,74,-100,-100,-100,0,0,100,0.00,40.00,0,-999,0,0.00
2013-7-29,93,87,77,-100,-100,-100,0,0,100,0.00,40.00,0,-999,0,0.00
2013-7-30,91,85,81,-100,-100,-100,0,0,100,0.00,40.00,0,-999,0,0.00
2013-7-31,96,89,80,-100,-100,-100,0,0,100,0.00,40.00,0,-999,0,0.00
2013-8-1,94,92,82,-100,-100,-100,0,0,100,0.00,40.00,0,-999,0,0.00
2013-8-2,94,89,80,-100,-100,-100,0,0,100,0.00,40.00,0,-999,0,0.00
2013-8-3,91,86,80,-100,-100,-100,0,0,100,0.00,40.00,0,-999,0,0.00
2013-8-4,93,85,82,-100,-100,-100,0,0,100,0.00,40.00,0,-999,0,0.00
2013-8-5,96,87,80,-100,-100,-100,0,0,100,0.00,40.00,0,-999,0,0.00
2013-8-6,98,93,87,-100,-100,-100,0,0,100,0.00,40.00,0,-999,0,0.00
2013-8-7,98,94,85,-100,-100,-100,0,0,100,0.00,40.00,0,-999,0,0.00
2013-8-8,94,86,79,-100,-100,-100,0,0,100,0.00,40.00,0,-999,0,0.00
2013-9-26,91,85,69,-100,-100,-100,0,0,100,0.00,40.00,0,-999,0,0.00
2013-9-27,92,87,72,-100,-100,-100,0,0,100,0.00,40.00,0,-999,0,0.00
2013-9-28,91,84,77,-100,-100,-100,0,0,100,0.00,40.00,0,-999,0,0.00
2013-9-29,83,81,78,-100,-100,-100,0,0,100,0.00,40.00,0,-999,0,0.00
2013-9-30,87,81,74,-100,-100,-100,0,0,100,0.00,40.00,0,-999,0,0.00
2013-10-2,87,84,80,-100,-100,-100,0,0,100,0.00,40.00,0,-999,0,0.00
2013-10-8,79,73,56,-100,-100,-100,0,0,100,0.00,40.00,0,-999,0,0.00
2013-10-9,82,76,56,-100,-100,-100,0,0,100,0.00,40.00,0,-999,0,0.00
2013-10-10,84,77,62,-100,-100,-100,0,0,100,0.00,40.00,0,-999,0,0.00
2013-10-11,86,80,67,-100,-100,-100,0,0,100,0.00,40.00,0,-999,0,0.00
2013-10-12,87,80,73,-100,-100,-100,0,0,100,0.00,40.00,0,-999,0,0.00
2013-10-13,85,80,75,-100,-100,-100,0,0,100,0.00,40.00,0,-999,0,0.00
2013-10-14,74,71,65,-100,-100,-100,0,0,100,0.00,40.00,0,-999,0,0.00
2013-10-15,73,70,67,-100,-100,-100,0,0,100,0.00,40.00,0,-999,0,0.00
2013-10-16,69,63,58,-100,-100,-100,0,0,100,0.00,40.00,0,-999,0,0.00
2013-10-17,73,61,52,-100,-100,-100,0,0,100,0.00,40.00,0,-999,0,0.00
2013-10-18,71,63,54,-100,-100,-100,0,0,100,0.00,40.00,0,-999,0,0.00
2013-10-19,66,57,48,-100,-100,-100,0,0,100,0.00,40.00,0,-999,0,0.00
2013-10-20,74,66,48,-100,-100,-100,0,0,100,0.00,40.00,0,-999,0,0.00
2013-10-21,65,59,51,-100,-100,-100,0,0,100,0.00,40.00,0,-999,0,0.00
2013-10-22,71,55,44,-100,-100,-100,0,0,100,0.00,40.00,0,-999,0,0.00
2013-10-23,72,63,48,-100,-100,-100,0,0,100,0.00,40.00,0,-999,0,0.00
2013-10-24,69,63,54,-100,-100,-100,0,0,100,0.00,40.00,0,-999,0,0.00
2013-10-25,62,49,40,-100,-100,-100,0,0,100,0.00,40.00,0,-999,0,0.00
2013-10-26,65,56,47,-100,-100,-100,0,0,100,0.00,40.00,0,-999,0,0.00
2013-10-27,69,63,60,-100,-100,-100,0,0,100,0.00,40.00,0,-999,0,0.00
2013-10-28,73,65,58,-100,-100,-100,0,0,100,0.00,40.00,0,-999,0,0.00
2013-10-29,74,69,65,-100,-100,-100,0,0,100,0.00,40.00,0,-999,0,0.00
2013-10-30,76,72,68,-100,-100,-100,0,0,100,0.00,40.00,0,-999,0,0.00
2013-10-31,80,71,68,-100,-100,-100,0,0,100,0.00,40.00,0,-999,0,0.00
2013-11-1,77,67,51,-100,-100,-100,0,0,100,0.00,40.00,0,-999,0,0.00
2013-11-2,67,60,49,-100,-100,-100,0,0,100,0.00,40.00,0,-999,0,0.00
2013-11-3,69,61,50,-100,-100,-100,0,0,100,0.00,40.00,0,-999,0,0.00
2013-11-4,62,57,53,-100,-100,-100,0,0,100,0.00,40.00,0,-999,0,0.00
2013-11-5,65,62,58,-100,-100,-100,0,0,100,0.00,40.00,0,-999,0,0.00
2013-11-6,67,58,43,-100,-100,-100,0,0,100,0.00,40.00,0,-999,0,0.00
2013-11-7,66,51,39,-100,-100,-100,0,0,100,0.00,40.00,0,-999,0,0.00
2013-11-8,70,62,49,-100,-100,-100,0,0,100,0.00,40.00,0,-999,0,0.00
2013-11-9,69,59,51,-100,-100,-100,0,0,100,0.00,40.00,0,-999,0,0.00
2013-11-10,73,66,54,-100,-100,-100,0,0,100,0.00,40.00,0,-999,0,0.00
2013-11-11,75,66,51,-100,-100,-100,0,0,100,0.00,40.00,0,-999,0,0.00
2013-11-12,61,50,41,-100,-100,-100,0,0,100,0.00,40.00,0,-999,0,0.00
2013-11-13,52,39,27,-100,-100,-100,0,0,100,0.00,40.00,0,-999,0,0.00
2013-11-14,58,43,30,-100,-100,-100,0,0,100,0.00,40.00,0,-999,0,0.00
2013-11-15,56,52,49,-100,-100,-100,0,0,100,0.00,40.00,0,-999,0,0.00
2013-11-16,74,66,55,-100,-100,-100,0,0,100,0.00,40.00,0,-999,0,0.00
2013-11-17,84,70,55,-100,-100,-100,0,0,100,0.00,40.00,0,-999,0,0.00
2013-11-18,73,55,45,-100,-100,-100,0,0,100,0.00,40.00,0,-999,0,0.00
2013-11-19,62,55,49,-100,-100,-100,0,0,100,0.00,40.00,0,-999,0,0.00
2013-11-20,67,54,44,-100,-100,-100,0,0,100,0.00,40.00,0,-999,0,0.00
2013-11-21,63,60,55,-100,-100,-100,0,0,100,0.00,40.00,0,-999,0,0.00
2013-11-22,60,47,41,-100,-100,-100,0,0,100,0.00,40.00,0,-999,0,0.00
2013-11-23,47,42,35,-100,-100,-100,0,0,100,0.00,40.00,0,-999,0,0.00
2013-11-24,35,29,25,-100,-100,-100,0,0,100,0.00,40.00,0,-999,0,0.00
2013-11-25,36,32,29,-100,-100,-100,0,0,100,0.00,40.00,0,-999,0,0.00
2013-11-26,51,41,33,-100,-100,-100,0,0,100,0.00,40.00,0,-999,0,0.00
2013-11-27,45,32,22,-100,-100,-100,0,0,100,0.00,40.00,0,-999,0,0.00
2013-11-28,54,39,21,-100,-100,-100,0,0,100,0.00,40.00,0,-999,0,0.00
2013-11-29,62,43,28,-100,-100,-100,0,0,100,0.00,40.00,0,-999,0,0.00
2013-11-30,63,44,33,-100,-100,-100,0,0,100,0.00,40.00,0,-999,0,0.00
2013-12-1,62,56,47,-100,-100,-100,0,0,100,0.00,40.00,0,-999,0,0.00
2013-12-2,71,58,51,-100,-100,-100,0,0,100,0.00,40.00,0,-999,0,0.00
2013-12-3,62,54,47,-100,-100,-100,0,0,100,0.00,40.00,0,-999,0,0.00
2013-12-4,72,57,49,-100,-100,-100,0,0,100,0.00,40.00,0,-999,0,0.00
2013-12-5,48,35,30,-100,-100,-100,0,0,100,0.00,40.00,0,-999,0,0.00
2013-12-6,29,24,21,-100,-100,-100,0,0,100,0.00,40.00,0,-999,0,0.00
2013-12-7,25,20,12,-100,-100,-100,0,0,100,0.00,40.00,0,-999,0,0.00
2013-12-8,29,25,21,-100,-100,-100,0,0,100,0.00,40.00,0,-999,0,0.00
2013-12-9,34,30,24,-100,-100,-100,0,0,100,0.00,40.00,0,-999,0,0.00
2013-12-10,30,25,19,-100,-100,-100,0,0,100,0.00,40.00,0,-999,0,0.00
2013-12-11,38,27,23,-100,-100,-100,0,0,100,0.00,40.00,0,-999,0,0.00
2013-12-12,41,27,19,-100,-100,-100,0,0,100,0.00,40.00,0,-999,0,0.00
2013-12-13,36,33,29,-100,-100,-100,0,0,100,0.00,40.00,0,-999,0,0.00
2013-12-14,41,37,32,-100,-100,-100,0,0,100,0.00,40.00,0,-999,0,0.00
2013-12-15,51,32,24,-100,-100,-100,0,0,100,0.00,40.00,0,-999,0,0.00
2013-12-16,63,41,29,-100,-100,-100,0,0,100,0.00,40.00,0,-999,0,0.00
2013-12-17,68,46,32,-100,-100,-100,0,0,100,0.00,40.00,0,-999,0,0.00
2013-12-18,67,47,32,-100,-100,-100,0,0,100,0.00,40.00,0,-999,0,0.00
2013-12-19,65,56,40,-100,-100,-100,0,0,100,0.00,40.00,0,-999,0,0.00
2013-12-20,65,58,43,-100,-100,-100,0,0,100,0.00,40.00,0,-999,0,0.00
2013-12-21,46,41,38,-100,-100,-100,0,0,100,0.00,40.00,0,-999,0,0.00
2013-12-22,41,34,30,-100,-100,-100,0,0,100,0.00,40.00,0,-999,0,0.00
2013-12-23,37,31,27,-100,-100,-100,0,0,100,0.00,40.00,0,-999,0,0.00
2013-12-24,42,29,21,-100,-100,-100,0,0,100,0.00,40.00,0,-999,0,0.00
2013-12-25,51,34,26,-100,-100,-100,0,0,100,0.00,40.00,0,-999,0,0.00
2013-12-26,52,36,26,-100,-100,-100,0,0,100,0.00,40.00,0,-999,0,0.00
2013-12-27,58,38,26,-100,-100,-100,0,0,100,0.00,40.00,0,-999,0,0.00
2013-12-28,55,39,29,-100,-100,-100,0,0,100,0.00,40.00,0,-999,0,0.00
2013-12-29,48,38,28,-100,-100,-100,0,0,100,0.00,40.00,0,-999,0,0.00
2013-12-30,35,31,25,-100,-100,-100,0,0,100,0.00,40.00,0,-999,0,0.00
2013-12-31,55,32,20,-100,-100,-100,0,0,100,0.00,40.00,0,-999,0,0.00
2014-1-1,57,40,25,-100,-100,-100,0,0,100,0.00,40.00,0,-999,0,0.00
2014-1-2,43,28,18,-100,-100,-100,0,0,100,0.00,40.00,0,-999,0,0.00